createdAt,value
2023-05-01T00:00:33.456Z,30.14
2023-05-01T00:01:33.505Z,30.12
2023-05-01T00:02:33.509Z,30.12
2023-05-01T00:03:33.623Z,30.14
2023-05-01T00:04:33.606Z,30.12
2023-05-01T00:05:33.572Z,30.12
2023-05-01T00:06:33.659Z,30.11
2023-05-01T00:07:33.632Z,30.12
2023-05-01T00:08:33.612Z,30.10
2023-05-01T00:09:33.660Z,30.11
2023-05-01T00:10:33.651Z,30.11
2023-05-01T00:11:33.681Z,30.11
2023-05-01T00:12:33.674Z,30.11
2023-05-01T00:13:33.668Z,30.08
2023-05-01T00:14:33.689Z,30.08
2023-05-01T00:15:33.664Z,30.08
2023-05-01T00:16:33.756Z,30.10
2023-05-01T00:17:33.713Z,30.08
2023-05-01T00:18:33.654Z,30.07
2023-05-01T00:19:33.675Z,30.08
2023-05-01T00:20:33.676Z,30.07
2023-05-01T00:21:33.701Z,30.08
2023-05-01T00:22:33.694Z,30.07
2023-05-01T00:23:33.699Z,30.05
2023-05-01T00:24:33.704Z,30.05
2023-05-01T00:25:33.673Z,30.04
2023-05-01T00:26:33.691Z,30.04
2023-05-01T00:27:33.736Z,30.05
2023-05-01T00:28:33.709Z,30.05
2023-05-01T00:29:33.691Z,30.05
2023-05-01T00:30:33.687Z,30.04
2023-05-01T00:31:33.759Z,30.03
2023-05-01T00:32:33.782Z,30.03
2023-05-01T00:33:33.708Z,30.04
2023-05-01T00:34:33.717Z,30.03
2023-05-01T00:35:33.644Z,30.03
2023-05-01T00:36:33.660Z,30.03
2023-05-01T00:37:33.694Z,30.01
2023-05-01T00:38:33.651Z,30.03
2023-05-01T00:39:33.638Z,30.03
2023-05-01T00:40:33.659Z,30.01
2023-05-01T00:41:33.586Z,30.03
2023-05-01T00:42:33.605Z,30.01
2023-05-01T00:43:33.635Z,30.00
2023-05-01T00:44:33.636Z,29.99
2023-05-01T00:45:33.616Z,29.99
2023-05-01T00:46:33.631Z,30.00
2023-05-01T00:47:33.610Z,30.00
2023-05-01T00:48:33.640Z,29.97
2023-05-01T00:49:33.619Z,29.99
2023-05-01T00:50:33.629Z,29.99
2023-05-01T00:51:33.597Z,29.97
2023-05-01T00:52:33.596Z,29.97
2023-05-01T00:53:33.598Z,29.97
2023-05-01T00:54:33.646Z,29.96
2023-05-01T00:55:33.717Z,29.97
2023-05-01T00:56:33.641Z,29.97
2023-05-01T00:57:33.608Z,29.94
2023-05-01T00:58:33.640Z,29.97
2023-05-01T00:59:34.763Z,29.94
2023-05-01T01:00:33.622Z,29.96
2023-05-01T01:01:33.677Z,29.94
2023-05-01T01:02:33.664Z,29.97
2023-05-01T01:03:33.656Z,29.93
2023-05-01T01:04:33.774Z,29.96
2023-05-01T01:05:33.659Z,29.93
2023-05-01T01:06:33.736Z,29.93
2023-05-01T01:07:33.665Z,29.94
2023-05-01T01:08:33.675Z,29.94
2023-05-01T01:09:33.681Z,29.91
2023-05-01T01:10:33.716Z,29.93
2023-05-01T01:11:33.716Z,29.93
2023-05-01T01:12:33.702Z,29.93
2023-05-01T01:13:33.745Z,29.91
2023-05-01T01:14:33.736Z,29.91
2023-05-01T01:15:33.718Z,29.91
2023-05-01T01:16:33.802Z,29.90
2023-05-01T01:17:33.768Z,29.88
2023-05-01T01:18:33.743Z,29.91
2023-05-01T01:19:33.750Z,29.88
2023-05-01T01:20:33.749Z,29.90
2023-05-01T01:21:33.778Z,29.88
2023-05-01T01:22:33.801Z,29.88
2023-05-01T01:23:33.774Z,29.87
2023-05-01T01:24:33.803Z,29.88
2023-05-01T01:25:33.856Z,29.87
2023-05-01T01:26:33.817Z,29.87
2023-05-01T01:27:33.870Z,29.87
2023-05-01T01:28:33.881Z,29.85
2023-05-01T01:29:33.837Z,29.85
2023-05-01T01:30:33.903Z,29.87
2023-05-01T01:31:34.014Z,29.87
2023-05-01T01:32:33.938Z,29.88
2023-05-01T01:33:33.915Z,29.87
2023-05-01T01:34:33.925Z,29.87
2023-05-01T01:35:33.919Z,29.84
2023-05-01T01:36:33.931Z,29.87
2023-05-01T01:37:33.992Z,29.85
2023-05-01T01:38:33.973Z,29.85
2023-05-01T01:39:34.008Z,29.85
2023-05-01T01:40:33.963Z,29.84
2023-05-01T01:41:34.030Z,29.84
2023-05-01T01:42:34.014Z,29.84
2023-05-01T01:43:34.013Z,29.84
2023-05-01T01:44:34.091Z,29.84
2023-05-01T01:45:34.050Z,29.84
2023-05-01T01:46:34.173Z,29.84
2023-05-01T01:47:34.197Z,29.84
2023-05-01T01:48:34.117Z,29.81
2023-05-01T01:49:34.183Z,29.84
2023-05-01T01:50:34.194Z,29.84
2023-05-01T01:51:34.191Z,29.83
2023-05-01T01:52:34.207Z,29.81
2023-05-01T01:53:34.199Z,29.81
2023-05-01T01:54:34.264Z,29.81
2023-05-01T01:55:34.293Z,29.80
2023-05-01T01:56:34.305Z,29.81
2023-05-01T01:57:34.323Z,29.80
2023-05-01T01:58:34.343Z,29.79
2023-05-01T01:59:34.701Z,29.79
2023-05-01T02:00:34.415Z,29.79
2023-05-01T02:01:34.472Z,29.79
2023-05-01T02:02:34.494Z,29.79
2023-05-01T02:03:34.529Z,29.77
2023-05-01T02:04:34.472Z,29.79
2023-05-01T02:05:34.546Z,29.77
2023-05-01T02:06:34.589Z,29.80
2023-05-01T02:07:34.562Z,29.79
2023-05-01T02:08:34.561Z,29.79
2023-05-01T02:09:34.549Z,29.77
2023-05-01T02:10:34.572Z,29.76
2023-05-01T02:11:34.637Z,29.77
2023-05-01T02:12:34.663Z,29.74
2023-05-01T02:13:34.707Z,29.79
2023-05-01T02:14:34.683Z,29.74
2023-05-01T02:15:34.718Z,29.77
2023-05-01T02:16:34.849Z,29.74
2023-05-01T02:17:34.797Z,29.76
2023-05-01T02:18:34.791Z,29.76
2023-05-01T02:19:34.803Z,29.76
2023-05-01T02:20:34.827Z,29.74
2023-05-01T02:21:34.866Z,29.74
2023-05-01T02:22:34.876Z,29.73
2023-05-01T02:23:34.929Z,29.73
2023-05-01T02:24:34.958Z,29.72
2023-05-01T02:25:34.941Z,29.73
2023-05-01T02:26:35.009Z,29.76
2023-05-01T02:27:34.967Z,29.73
2023-05-01T02:28:35.010Z,29.74
2023-05-01T02:29:35.080Z,29.72
2023-05-01T02:30:35.073Z,29.74
2023-05-01T02:31:35.109Z,29.73
2023-05-01T02:32:35.193Z,29.72
2023-05-01T02:33:35.150Z,29.73
2023-05-01T02:34:35.170Z,29.72
2023-05-01T02:35:35.218Z,29.72
2023-05-01T02:36:35.193Z,29.70
2023-05-01T02:37:35.278Z,29.72
2023-05-01T02:38:35.324Z,29.69
2023-05-01T02:39:35.316Z,29.69
2023-05-01T02:40:35.360Z,29.70
2023-05-01T02:41:35.355Z,29.72
2023-05-01T02:42:35.419Z,29.69
2023-05-01T02:43:35.428Z,29.66
2023-05-01T02:44:35.488Z,29.69
2023-05-01T02:45:35.523Z,29.69
2023-05-01T02:46:35.516Z,29.69
2023-05-01T02:47:35.670Z,29.70
2023-05-01T02:48:35.563Z,29.66
2023-05-01T02:49:35.565Z,29.70
2023-05-01T02:50:35.614Z,29.67
2023-05-01T02:51:35.681Z,29.69
2023-05-01T02:52:35.699Z,29.67
2023-05-01T02:53:35.686Z,29.66
2023-05-01T02:54:35.751Z,29.67
2023-05-01T02:55:35.785Z,29.67
2023-05-01T02:56:35.821Z,29.69
2023-05-01T02:57:35.815Z,29.67
2023-05-01T02:58:35.889Z,29.64
2023-05-01T02:59:35.898Z,29.66
2023-05-01T03:00:35.959Z,29.66
2023-05-01T03:01:36.050Z,29.66
2023-05-01T03:02:36.062Z,29.64
2023-05-01T03:03:36.078Z,29.64
2023-05-01T03:04:36.099Z,29.63
2023-05-01T03:05:36.131Z,29.66
2023-05-01T03:06:36.253Z,29.67
2023-05-01T03:07:36.208Z,29.62
2023-05-01T03:08:36.209Z,29.66
2023-05-01T03:09:36.256Z,29.64
2023-05-01T03:10:36.330Z,29.63
2023-05-01T03:11:36.328Z,29.66
2023-05-01T03:12:36.385Z,29.64
2023-05-01T03:13:36.462Z,29.62
2023-05-01T03:14:36.484Z,29.63
2023-05-01T03:15:36.517Z,29.63
2023-05-01T03:16:36.546Z,29.64
2023-05-01T03:17:36.593Z,29.63
2023-05-01T03:18:36.587Z,29.62
2023-05-01T03:19:36.700Z,29.62
2023-05-01T03:20:36.711Z,29.63
2023-05-01T03:21:36.758Z,29.62
2023-05-01T03:22:36.790Z,29.63
2023-05-01T03:23:36.816Z,29.62
2023-05-01T03:24:36.876Z,29.62
2023-05-01T03:25:36.904Z,29.59
2023-05-01T03:26:36.946Z,29.59
2023-05-01T03:27:36.980Z,29.63
2023-05-01T03:28:37.006Z,29.62
2023-05-01T03:29:37.032Z,29.62
2023-05-01T03:30:37.078Z,29.60
2023-05-01T03:31:37.270Z,29.62
2023-05-01T03:32:37.220Z,29.60
2023-05-01T03:33:37.217Z,29.60
2023-05-01T03:34:37.212Z,29.59
2023-05-01T03:35:37.303Z,29.60
2023-05-01T03:36:37.331Z,29.57
2023-05-01T03:37:37.373Z,29.60
2023-05-01T03:38:37.394Z,29.59
2023-05-01T03:39:37.445Z,29.59
2023-05-01T03:40:37.492Z,29.57
2023-05-01T03:41:37.570Z,29.59
2023-05-01T03:42:37.574Z,29.57
2023-05-01T03:43:37.571Z,29.56
2023-05-01T03:44:37.615Z,29.57
2023-05-01T03:45:37.684Z,29.57
2023-05-01T03:46:37.841Z,29.57
2023-05-01T03:47:37.782Z,29.59
2023-05-01T03:48:37.815Z,29.57
2023-05-01T03:49:37.862Z,29.57
2023-05-01T03:50:37.927Z,29.56
2023-05-01T03:51:37.910Z,29.55
2023-05-01T03:52:37.956Z,29.55
2023-05-01T03:53:38.049Z,29.56
2023-05-01T03:54:38.124Z,29.56
2023-05-01T03:55:38.113Z,29.55
2023-05-01T03:56:38.144Z,29.56
2023-05-01T03:57:38.271Z,29.56
2023-05-01T03:58:38.229Z,29.52
2023-05-01T03:59:38.296Z,29.56
2023-05-01T04:00:38.296Z,29.56
2023-05-01T04:01:38.409Z,29.55
2023-05-01T04:02:38.440Z,29.57
2023-05-01T04:03:38.720Z,29.55
2023-05-01T04:04:38.668Z,29.53
2023-05-01T04:05:38.584Z,29.50
2023-05-01T04:06:38.701Z,29.48
2023-05-01T04:07:38.704Z,29.48
2023-05-01T04:08:38.771Z,29.46
2023-05-01T04:09:38.826Z,29.44
2023-05-01T04:10:38.848Z,29.40
2023-05-01T04:11:38.952Z,29.36
2023-05-01T04:12:38.971Z,29.36
2023-05-01T04:13:39.017Z,29.32
2023-05-01T04:14:38.994Z,29.32
2023-05-01T04:15:39.103Z,29.30
2023-05-01T04:16:39.142Z,29.29
2023-05-01T04:17:39.071Z,29.25
2023-05-01T04:18:39.088Z,29.25
2023-05-01T04:19:39.059Z,29.25
2023-05-01T04:20:39.028Z,29.24
2023-05-01T04:21:39.024Z,29.18
2023-05-01T04:22:39.094Z,29.17
2023-05-01T04:23:39.080Z,29.12
2023-05-01T04:24:39.080Z,29.11
2023-05-01T04:25:39.104Z,29.09
2023-05-01T04:26:39.097Z,29.05
2023-05-01T04:27:39.103Z,29.05
2023-05-01T04:28:39.115Z,28.98
2023-05-01T04:29:39.116Z,28.99
2023-05-01T04:30:39.146Z,28.97
2023-05-01T04:31:39.222Z,28.97
2023-05-01T04:32:39.234Z,28.97
2023-05-01T04:33:39.201Z,28.97
2023-05-01T04:34:39.209Z,28.98
2023-05-01T04:35:39.221Z,28.94
2023-05-01T04:36:39.223Z,28.99
2023-05-01T04:37:39.377Z,28.99
2023-05-01T04:38:39.233Z,28.99
2023-05-01T04:39:39.238Z,29.01
2023-05-01T04:40:39.265Z,29.02
2023-05-01T04:41:39.248Z,29.05
2023-05-01T04:42:39.310Z,29.02
2023-05-01T04:43:39.230Z,29.02
2023-05-01T04:44:39.212Z,29.05
2023-05-01T04:45:39.233Z,29.07
2023-05-01T04:46:39.305Z,29.08
2023-05-01T04:47:39.358Z,29.11
2023-05-01T04:48:39.232Z,29.11
2023-05-01T04:49:39.261Z,29.11
2023-05-01T04:50:39.208Z,29.09
2023-05-01T04:51:39.225Z,29.09
2023-05-01T04:52:39.256Z,29.12
2023-05-01T04:53:39.219Z,29.11
2023-05-01T04:54:39.234Z,29.11
2023-05-01T04:55:39.242Z,29.11
2023-05-01T04:56:39.279Z,29.11
2023-05-01T04:57:39.308Z,29.11
2023-05-01T04:58:39.308Z,29.12
2023-05-01T04:59:39.382Z,29.12
2023-05-01T05:00:39.439Z,29.12
2023-05-01T05:01:39.494Z,29.11
2023-05-01T05:02:39.526Z,29.11
2023-05-01T05:03:39.504Z,29.12
2023-05-01T05:04:39.466Z,29.12
2023-05-01T05:05:39.523Z,29.14
2023-05-01T05:06:39.675Z,29.14
2023-05-01T05:07:39.516Z,29.14
2023-05-01T05:08:39.532Z,29.14
2023-05-01T05:09:39.511Z,29.14
2023-05-01T05:10:39.502Z,29.14
2023-05-01T05:11:39.551Z,29.14
2023-05-01T05:12:39.552Z,29.15
2023-05-01T05:13:39.569Z,29.14
2023-05-01T05:14:39.594Z,29.12
2023-05-01T05:15:39.594Z,29.15
2023-05-01T05:16:39.599Z,29.14
2023-05-01T05:17:39.615Z,29.14
2023-05-01T05:18:39.598Z,29.12
2023-05-01T05:19:39.613Z,29.12
2023-05-01T05:20:39.610Z,29.11
2023-05-01T05:21:39.618Z,29.12
2023-05-01T05:22:39.621Z,29.12
2023-05-01T05:23:39.638Z,29.11
2023-05-01T05:24:39.643Z,29.11
2023-05-01T05:25:39.725Z,29.11
2023-05-01T05:26:39.601Z,29.11
2023-05-01T05:27:39.682Z,29.11
2023-05-01T05:28:39.621Z,29.09
2023-05-01T05:29:39.618Z,29.12
2023-05-01T05:30:39.628Z,29.09
2023-05-01T05:31:39.683Z,29.11
2023-05-01T05:32:39.663Z,29.11
2023-05-01T05:33:39.647Z,29.09
2023-05-01T05:34:39.651Z,29.08
2023-05-01T05:35:39.760Z,29.08
2023-05-01T05:36:39.693Z,29.09
2023-05-01T05:37:39.668Z,29.08
2023-05-01T05:38:39.687Z,29.09
2023-05-01T05:39:39.702Z,29.09
2023-05-01T05:40:39.693Z,29.08
2023-05-01T05:41:39.652Z,29.08
2023-05-01T05:42:39.664Z,29.09
2023-05-01T05:43:39.663Z,29.08
2023-05-01T05:44:39.681Z,29.09
2023-05-01T05:45:39.661Z,29.09
2023-05-01T05:46:39.725Z,29.11
2023-05-01T05:47:39.653Z,29.08
2023-05-01T05:48:39.652Z,29.07
2023-05-01T05:49:39.662Z,29.05
2023-05-01T05:50:39.616Z,29.08
2023-05-01T05:51:39.622Z,29.07
2023-05-01T05:52:39.623Z,29.07
2023-05-01T05:53:39.676Z,29.08
2023-05-01T05:54:39.612Z,29.07
2023-05-01T05:55:39.589Z,29.05
2023-05-01T05:56:39.866Z,29.05
2023-05-01T05:57:39.661Z,29.05
2023-05-01T05:58:39.607Z,29.05
2023-05-01T05:59:39.620Z,29.08
2023-05-01T06:00:39.636Z,29.05
2023-05-01T06:01:39.693Z,29.05
2023-05-01T06:02:39.795Z,29.05
2023-05-01T06:03:39.814Z,29.04
2023-05-01T06:04:39.624Z,29.05
2023-05-01T06:05:39.746Z,29.08
2023-05-01T06:06:39.631Z,29.05
2023-05-01T06:07:39.669Z,29.05
2023-05-01T06:08:39.645Z,29.04
2023-05-01T06:09:39.669Z,29.07
2023-05-01T06:10:39.662Z,29.07
2023-05-01T06:11:39.656Z,29.05
2023-05-01T06:12:41.677Z,29.07
2023-05-01T06:13:40.598Z,29.08
2023-05-01T06:14:39.624Z,29.05
2023-05-01T06:15:39.641Z,29.07
2023-05-01T06:16:39.592Z,29.07
2023-05-01T06:17:39.572Z,29.05
2023-05-01T06:18:39.538Z,29.08
2023-05-01T06:19:39.554Z,29.07
2023-05-01T06:20:39.563Z,29.04
2023-05-01T06:21:39.520Z,29.08
2023-05-01T06:22:39.521Z,29.05
2023-05-01T06:23:39.474Z,29.07
2023-05-01T06:24:39.628Z,29.08
2023-05-01T06:25:39.479Z,29.05
2023-05-01T06:26:39.501Z,29.09
2023-05-01T06:27:39.497Z,29.08
2023-05-01T06:28:39.471Z,29.09
2023-05-01T06:29:39.472Z,29.09
2023-05-01T06:30:39.484Z,29.08
2023-05-01T06:31:39.439Z,29.09
2023-05-01T06:32:39.440Z,29.09
2023-05-01T06:33:39.495Z,29.09
2023-05-01T06:34:39.461Z,29.08
2023-05-01T06:35:39.467Z,29.08
2023-05-01T06:36:39.488Z,29.08
2023-05-01T06:37:39.422Z,29.07
2023-05-01T06:38:39.430Z,29.09
2023-05-01T06:39:39.395Z,29.08
2023-05-01T06:40:39.435Z,29.11
2023-05-01T06:41:39.392Z,29.08
2023-05-01T06:42:39.404Z,29.08
2023-05-01T06:43:39.412Z,29.07
2023-05-01T06:44:39.365Z,29.11
2023-05-01T06:45:39.369Z,29.11
2023-05-01T06:46:39.415Z,29.09
2023-05-01T06:47:39.435Z,29.09
2023-05-01T06:48:39.393Z,29.09
2023-05-01T06:49:39.398Z,29.09
2023-05-01T06:50:39.352Z,29.09
2023-05-01T06:51:39.417Z,29.08
2023-05-01T06:52:39.413Z,29.07
2023-05-01T06:53:39.391Z,29.07
2023-05-01T06:54:39.378Z,29.08
2023-05-01T06:55:39.383Z,29.08
2023-05-01T06:56:39.400Z,29.09
2023-05-01T06:57:39.401Z,29.09
2023-05-01T06:58:39.344Z,29.08
2023-05-01T06:59:39.372Z,29.09
2023-05-01T07:00:39.437Z,29.09
2023-05-01T07:01:39.409Z,29.11
2023-05-01T07:02:39.517Z,29.09
2023-05-01T07:03:39.539Z,29.09
2023-05-01T07:04:40.376Z,29.08
2023-05-01T07:05:39.445Z,29.11
2023-05-01T07:06:39.552Z,29.11
2023-05-01T07:07:47.349Z,29.09
2023-05-01T07:08:40.508Z,29.09
2023-05-01T07:09:39.490Z,29.11
2023-05-01T07:10:41.297Z,29.09
2023-05-01T07:11:39.615Z,29.09
2023-05-01T07:12:39.710Z,29.08
2023-05-01T07:13:39.730Z,29.09
2023-05-01T07:14:39.742Z,29.09
2023-05-01T07:15:39.779Z,29.08
2023-05-01T07:16:39.783Z,29.11
2023-05-01T07:17:39.769Z,29.09
2023-05-01T07:18:39.841Z,29.09
2023-05-01T07:19:39.806Z,29.09
2023-05-01T07:20:39.867Z,29.09
2023-05-01T07:21:39.878Z,29.08
2023-05-01T07:22:39.919Z,29.09
2023-05-01T07:23:40.011Z,29.08
2023-05-01T07:24:39.994Z,29.09
2023-05-01T07:25:40.053Z,29.11
2023-05-01T07:26:40.065Z,29.08
2023-05-01T07:27:40.129Z,29.12
2023-05-01T07:28:40.124Z,29.09
2023-05-01T07:29:40.175Z,29.11
2023-05-01T07:30:40.452Z,29.12
2023-05-01T07:31:40.302Z,29.11
2023-05-01T07:32:40.309Z,29.11
2023-05-01T07:33:40.257Z,29.08
2023-05-01T07:34:40.321Z,29.12
2023-05-01T07:35:40.342Z,29.11
2023-05-01T07:36:40.392Z,29.11
2023-05-01T07:37:40.424Z,29.09
2023-05-01T07:38:40.507Z,29.12
2023-05-01T07:39:40.561Z,29.14
2023-05-01T07:40:40.529Z,29.14
2023-05-01T07:41:40.591Z,29.12
2023-05-01T07:42:40.585Z,29.12
2023-05-01T07:43:40.637Z,29.14
2023-05-01T07:44:40.680Z,29.12
2023-05-01T07:45:40.789Z,29.14
2023-05-01T07:46:40.787Z,29.15
2023-05-01T07:47:40.936Z,29.17
2023-05-01T07:48:40.894Z,29.17
2023-05-01T07:49:40.909Z,29.17
2023-05-01T07:50:40.997Z,29.17
2023-05-01T07:51:41.036Z,29.18
2023-05-01T07:52:41.071Z,29.21
2023-05-01T07:53:41.124Z,29.19
2023-05-01T07:54:41.148Z,29.21
2023-05-01T07:55:41.227Z,29.18
2023-05-01T07:56:41.295Z,29.19
2023-05-01T07:57:41.327Z,29.25
2023-05-01T07:58:41.403Z,29.24
2023-05-01T07:59:41.397Z,29.22
2023-05-01T08:00:41.436Z,29.24
2023-05-01T08:01:41.495Z,29.25
2023-05-01T08:02:41.716Z,29.25
2023-05-01T08:03:41.744Z,29.24
2023-05-01T08:04:42.005Z,29.26
2023-05-01T08:05:41.735Z,29.26
2023-05-01T08:06:41.877Z,29.29
2023-05-01T08:07:41.878Z,29.30
2023-05-01T08:08:41.937Z,29.30
2023-05-01T08:09:42.001Z,29.30
2023-05-01T08:10:42.063Z,29.33
2023-05-01T08:11:42.119Z,29.33
2023-05-01T08:12:42.171Z,29.33
2023-05-01T08:13:42.259Z,29.33
2023-05-01T08:14:42.275Z,29.33
2023-05-01T08:15:42.404Z,29.36
2023-05-01T08:16:42.419Z,29.36
2023-05-01T08:17:42.546Z,29.36
2023-05-01T08:18:42.515Z,29.37
2023-05-01T08:19:42.586Z,29.40
2023-05-01T08:20:42.643Z,29.40
2023-05-01T08:21:42.648Z,29.39
2023-05-01T08:22:42.720Z,29.40
2023-05-01T08:23:42.786Z,29.42
2023-05-01T08:24:42.822Z,29.42
2023-05-01T08:25:42.871Z,29.45
2023-05-01T08:26:42.922Z,29.46
2023-05-01T08:27:42.990Z,29.46
2023-05-01T08:28:43.051Z,29.48
2023-05-01T08:29:43.116Z,29.48
2023-05-01T08:30:43.164Z,29.46
2023-05-01T08:31:44.044Z,29.50
2023-05-01T08:32:43.222Z,29.52
2023-05-01T08:33:43.317Z,29.50
2023-05-01T08:34:43.295Z,29.50
2023-05-01T08:35:43.371Z,29.53
2023-05-01T08:36:43.356Z,29.53
2023-05-01T08:37:43.418Z,29.55
2023-05-01T08:38:43.437Z,29.53
2023-05-01T08:39:43.481Z,29.53
2023-05-01T08:40:43.519Z,29.53
2023-05-01T08:41:43.603Z,29.56
2023-05-01T08:42:43.616Z,29.56
2023-05-01T08:43:43.671Z,29.56
2023-05-01T08:44:43.670Z,29.59
2023-05-01T08:45:43.732Z,29.60
2023-05-01T08:46:43.758Z,29.57
2023-05-01T08:47:43.780Z,29.59
2023-05-01T08:48:43.789Z,29.62
2023-05-01T08:49:43.801Z,29.62
2023-05-01T08:50:43.848Z,29.60
2023-05-01T08:51:43.874Z,29.63
2023-05-01T08:52:43.872Z,29.63
2023-05-01T08:53:43.917Z,29.66
2023-05-01T08:54:43.987Z,29.64
2023-05-01T08:55:43.975Z,29.66
2023-05-01T08:56:44.010Z,29.66
2023-05-01T08:57:44.013Z,29.72
2023-05-01T08:58:44.048Z,29.72
2023-05-01T08:59:44.058Z,29.74
2023-05-01T09:00:44.088Z,29.73
2023-05-01T09:01:44.188Z,29.72
2023-05-01T09:02:44.187Z,29.76
2023-05-01T09:03:44.308Z,29.76
2023-05-01T09:04:44.164Z,29.77
2023-05-01T09:05:44.175Z,29.79
2023-05-01T09:06:44.325Z,29.80
2023-05-01T09:07:44.239Z,29.80
2023-05-01T09:08:44.234Z,29.80
2023-05-01T09:09:44.341Z,29.81
2023-05-01T09:10:44.278Z,29.83
2023-05-01T09:11:44.305Z,29.84
2023-05-01T09:12:44.422Z,29.84
2023-05-01T09:13:44.317Z,29.83
2023-05-01T09:14:44.325Z,29.84
2023-05-01T09:15:44.433Z,29.85
2023-05-01T09:16:44.425Z,29.85
2023-05-01T09:17:44.417Z,29.85
2023-05-01T09:18:44.383Z,29.87
2023-05-01T09:19:44.426Z,29.85
2023-05-01T09:20:44.398Z,29.88
2023-05-01T09:21:44.444Z,29.91
2023-05-01T09:22:44.444Z,29.91
2023-05-01T09:23:44.388Z,29.90
2023-05-01T09:24:44.414Z,29.93
2023-05-01T09:25:44.396Z,29.93
2023-05-01T09:26:44.458Z,29.94
2023-05-01T09:27:44.540Z,29.97
2023-05-01T09:28:44.422Z,29.97
2023-05-01T09:29:44.506Z,29.99
2023-05-01T09:30:44.438Z,30.00
2023-05-01T09:31:44.561Z,30.00
2023-05-01T09:32:44.498Z,30.01
2023-05-01T09:33:44.458Z,30.03
2023-05-01T09:34:44.445Z,30.05
2023-05-01T09:35:44.433Z,30.07
2023-05-01T09:36:44.482Z,30.07
2023-05-01T09:37:45.213Z,30.10
2023-05-01T09:38:44.457Z,30.10
2023-05-01T09:39:44.392Z,30.12
2023-05-01T09:40:44.466Z,30.15
2023-05-01T09:41:44.468Z,30.12
2023-05-01T09:42:44.465Z,30.17
2023-05-01T09:43:44.525Z,30.17
2023-05-01T09:44:44.569Z,30.19
2023-05-01T09:45:44.668Z,30.22
2023-05-01T09:46:44.653Z,30.19
2023-05-01T09:47:44.779Z,30.22
2023-05-01T09:48:44.825Z,30.21
2023-05-01T09:49:44.830Z,30.25
2023-05-01T09:50:44.921Z,30.27
2023-05-01T09:51:45.068Z,30.25
2023-05-01T09:52:45.062Z,30.25
2023-05-01T09:53:45.108Z,30.25
2023-05-01T09:54:45.182Z,30.28
2023-05-01T09:55:45.231Z,30.28
2023-05-01T09:56:45.271Z,30.31
2023-05-01T09:57:45.337Z,30.29
2023-05-01T09:58:45.416Z,30.32
2023-05-01T09:59:45.458Z,30.32
2023-05-01T10:00:45.531Z,30.34
2023-05-01T10:01:45.688Z,30.32
2023-05-01T10:02:45.709Z,30.36
2023-05-01T10:03:45.846Z,30.36
2023-05-01T10:04:45.762Z,30.38
2023-05-01T10:05:45.800Z,30.38
2023-05-01T10:06:45.898Z,30.38
2023-05-01T10:07:45.901Z,30.40
2023-05-01T10:08:45.967Z,30.39
2023-05-01T10:09:46.006Z,30.42
2023-05-01T10:10:46.112Z,30.40
2023-05-01T10:11:46.099Z,30.43
2023-05-01T10:12:46.134Z,30.42
2023-05-01T10:13:46.196Z,30.40
2023-05-01T10:14:46.293Z,30.42
2023-05-01T10:15:46.311Z,30.45
2023-05-01T10:16:46.379Z,30.43
2023-05-01T10:17:46.447Z,30.46
2023-05-01T10:18:46.482Z,30.43
2023-05-01T10:19:46.577Z,30.46
2023-05-01T10:20:46.551Z,30.48
2023-05-01T10:21:46.585Z,30.46
2023-05-01T10:22:46.841Z,30.48
2023-05-01T10:23:46.676Z,30.49
2023-05-01T10:24:46.762Z,30.49
2023-05-01T10:25:46.773Z,30.50
2023-05-01T10:26:46.838Z,30.52
2023-05-01T10:27:46.915Z,30.52
2023-05-01T10:28:46.934Z,30.54
2023-05-01T10:29:46.933Z,30.54
2023-05-01T10:30:47.010Z,30.55
2023-05-01T10:31:47.108Z,30.54
2023-05-01T10:32:47.113Z,30.55
2023-05-01T10:33:47.127Z,30.58
2023-05-01T10:34:47.122Z,30.56
2023-05-01T10:35:47.184Z,30.58
2023-05-01T10:36:47.219Z,30.58
2023-05-01T10:37:47.283Z,30.58
2023-05-01T10:38:47.260Z,30.58
2023-05-01T10:39:47.316Z,30.62
2023-05-01T10:40:47.367Z,30.62
2023-05-01T10:41:47.415Z,30.66
2023-05-01T10:42:47.424Z,30.66
2023-05-01T10:43:47.442Z,30.66
2023-05-01T10:44:47.462Z,30.70
2023-05-01T10:45:47.498Z,30.70
2023-05-01T10:46:47.581Z,30.72
2023-05-01T10:47:47.620Z,30.73
2023-05-01T10:48:47.564Z,30.75
2023-05-01T10:49:47.616Z,30.76
2023-05-01T10:50:47.646Z,30.76
2023-05-01T10:51:47.629Z,30.77
2023-05-01T10:52:47.627Z,30.79
2023-05-01T10:53:47.694Z,30.80
2023-05-01T10:54:47.708Z,30.79
2023-05-01T10:55:47.737Z,30.80
2023-05-01T10:56:47.720Z,30.79
2023-05-01T10:57:47.676Z,30.82
2023-05-01T10:58:47.684Z,30.83
2023-05-01T10:59:47.745Z,30.84
2023-05-01T11:00:47.792Z,30.82
2023-05-01T11:01:47.836Z,30.84
2023-05-01T11:02:47.799Z,30.86
2023-05-01T11:03:47.755Z,30.89
2023-05-01T11:04:47.792Z,30.89
2023-05-01T11:05:47.809Z,30.91
2023-05-01T11:06:47.826Z,30.91
2023-05-01T11:07:47.793Z,30.94
2023-05-01T11:08:47.792Z,30.94
2023-05-01T11:09:47.809Z,30.96
2023-05-01T11:10:47.830Z,30.98
2023-05-01T11:11:47.868Z,30.96
2023-05-01T11:12:47.870Z,30.98
2023-05-01T11:13:47.882Z,31.00
2023-05-01T11:14:47.852Z,31.01
2023-05-01T11:15:47.907Z,31.01
2023-05-01T11:16:48.005Z,31.03
2023-05-01T11:17:47.929Z,31.04
2023-05-01T11:18:47.891Z,31.07
2023-05-01T11:19:47.931Z,31.07
2023-05-01T11:20:47.922Z,31.09
2023-05-01T11:21:47.941Z,31.06
2023-05-01T11:22:47.939Z,31.10
2023-05-01T11:23:47.943Z,31.10
2023-05-01T11:24:47.975Z,31.11
2023-05-01T11:25:47.932Z,31.10
2023-05-01T11:26:47.971Z,31.11
2023-05-01T11:27:48.081Z,31.11
2023-05-01T11:28:47.982Z,31.13
2023-05-01T11:29:47.988Z,31.16
2023-05-01T11:30:47.945Z,31.16
2023-05-01T11:31:48.002Z,31.17
2023-05-01T11:32:47.992Z,31.17
2023-05-01T11:33:47.988Z,31.17
2023-05-01T11:34:47.981Z,31.17
2023-05-01T11:35:47.980Z,31.16
2023-05-01T11:36:47.990Z,31.17
2023-05-01T11:37:47.938Z,31.17
2023-05-01T11:38:48.005Z,31.17
2023-05-01T11:39:47.956Z,31.18
2023-05-01T11:40:47.966Z,31.18
2023-05-01T11:41:48.011Z,31.20
2023-05-01T11:42:47.948Z,31.20
2023-05-01T11:43:48.039Z,31.18
2023-05-01T11:44:47.991Z,31.18
2023-05-01T11:45:48.017Z,31.22
2023-05-01T11:46:48.011Z,31.21
2023-05-01T11:47:48.078Z,31.20
2023-05-01T11:48:47.970Z,31.21
2023-05-01T11:49:47.968Z,31.22
2023-05-01T11:50:47.979Z,31.24
2023-05-01T11:51:47.934Z,31.25
2023-05-01T11:52:47.961Z,31.24
2023-05-01T11:53:47.932Z,31.27
2023-05-01T11:54:47.961Z,31.24
2023-05-01T11:55:47.987Z,31.24
2023-05-01T11:56:47.952Z,31.25
2023-05-01T11:57:47.971Z,31.25
2023-05-01T11:58:47.923Z,31.25
2023-05-01T11:59:48.006Z,31.27
2023-05-01T12:00:48.009Z,31.25
2023-05-01T12:01:47.911Z,31.25
2023-05-01T12:02:48.143Z,31.27
2023-05-01T12:03:48.036Z,31.27
2023-05-01T12:04:48.061Z,31.28
2023-05-01T12:05:47.936Z,31.24
2023-05-01T12:06:48.004Z,31.27
2023-05-01T12:07:47.955Z,31.25
2023-05-01T12:08:47.961Z,31.24
2023-05-01T12:09:47.915Z,31.27
2023-05-01T12:10:47.916Z,31.28
2023-05-01T12:11:48.408Z,31.24
2023-05-01T12:12:47.923Z,31.27
2023-05-01T12:13:47.929Z,31.25
2023-05-01T12:14:47.890Z,31.25
2023-05-01T12:15:47.892Z,31.27
2023-05-01T12:16:48.027Z,31.24
2023-05-01T12:17:47.974Z,31.25
2023-05-01T12:18:47.902Z,31.27
2023-05-01T12:19:47.908Z,31.28
2023-05-01T12:20:47.981Z,31.28
2023-05-01T12:21:47.990Z,31.30
2023-05-01T12:22:48.013Z,31.28
2023-05-01T12:23:48.047Z,31.30
2023-05-01T12:24:48.046Z,31.28
2023-05-01T12:25:48.074Z,31.27
2023-05-01T12:26:48.118Z,31.31
2023-05-01T12:27:48.173Z,31.32
2023-05-01T12:28:48.176Z,31.31
2023-05-01T12:29:48.174Z,31.32
2023-05-01T12:30:48.257Z,31.34
2023-05-01T12:31:48.441Z,31.34
2023-05-01T12:32:48.394Z,31.38
2023-05-01T12:33:48.373Z,31.37
2023-05-01T12:34:48.431Z,31.38
2023-05-01T12:35:48.505Z,31.41
2023-05-01T12:36:48.567Z,31.41
2023-05-01T12:37:48.604Z,31.38
2023-05-01T12:38:48.674Z,31.41
2023-05-01T12:39:48.725Z,31.42
2023-05-01T12:40:48.765Z,31.45
2023-05-01T12:41:48.876Z,31.45
2023-05-01T12:42:48.950Z,31.45
2023-05-01T12:43:48.952Z,31.48
2023-05-01T12:44:49.044Z,31.48
2023-05-01T12:45:49.060Z,31.49
2023-05-01T12:46:49.166Z,31.52
2023-05-01T12:47:49.261Z,31.55
2023-05-01T12:48:49.320Z,31.53
2023-05-01T12:49:49.330Z,31.52
2023-05-01T12:50:51.067Z,31.53
2023-05-01T12:51:49.416Z,31.58
2023-05-01T12:52:49.528Z,31.58